Eendracht — PDVN — position and weather

sailwx.info

Track history (hours):
 
Tides and Currents Weather Stations Pressure Air Temp Water Temp Dewpoint Dewpoint Depression Visibility Wind Speed Wind Dir Waves Ship Positions

Eendracht (Netherlands)

Last reported at 2014-Aug-20 16:30 UTC. Time now 2014-Aug-20 16:37 UTC.
Position N 51°31' E 000°43'.

Length 59 m; beam 12 m; draft 5 m.

Type: Sailing vessel. MMSI: 244543000.

Date/timePositionNaut miles runAvg speedWind from/ knotsBaromVisibWave heightAir tempDewpointWater temp
2014-Aug-20 16:30N 51°31' E 000°43'0 0.0
2014-Aug-20 15:33N 51°31' E 000°43'0 0.0
2014-Aug-20 14:33N 51°31' E 000°43'0 0.0
2014-Aug-20 13:33N 51°31' E 000°43'1 1.3
2014-Aug-20 12:34N 51°30' E 000°45'5 4.6
2014-Aug-20 11:33N 51°30' E 000°53'4 4.0
2014-Aug-20 10:34N 51°32' E 000°59'4 4.1
2014-Aug-20 09:33N 51°33' E 001°05'5 4.9
2014-Aug-20 08:33N 51°36' E 001°11'6 5.5
2014-Aug-20 07:33N 51°40' E 001°17'6 6.2
2014-Aug-20 06:33N 51°44' E 001°24'7 6.9
2014-Aug-20 05:33N 51°49' E 001°33'7 7.2
2014-Aug-20 04:34N 51°53' E 001°42'8 7.7
2014-Aug-20 03:33N 52°01' E 001°45'7 7.5
2014-Aug-20 02:34N 52°08' E 001°46'7 6.7
2014-Aug-20 01:33N 52°15' E 001°48'6 6.1
2014-Aug-20 00:33N 52°21' E 001°49'5 5.4
2014-Aug-19 23:34N 52°26' E 001°50'5 4.5
2014-Aug-19 22:34N 52°31' E 001°51'4 3.6
2014-Aug-19 21:33N 52°34' E 001°53'1 1.0
2014-Aug-19 20:34N 52°35' E 001°54'3 3.1
2014-Aug-19 19:34N 52°38' E 001°56'5 5.2
2014-Aug-19 18:33N 52°42' E 001°59'5 5.5
2014-Aug-19 17:34N 52°48' E 001°58'7 6.9
2014-Aug-19 16:33N 52°55' E 001°58'8 7.7
2014-Aug-19 15:33N 53°02' E 001°59'5 5.1
2014-Aug-19 14:33N 53°04' E 001°50'7 7.3
2014-Aug-19 13:33N 53°04' E 001°38'6 6.4
2014-Aug-19 12:33N 53°03' E 001°28'3 3.3
2014-Aug-19 11:33N 53°02' E 001°23'5 5.2
2014-Aug-19 10:34N 53°06' E 001°18'6 6.2
2014-Aug-19 09:33N 53°11' E 001°12'29 5.4
2014-Aug-19 04:06N 53°38' E 000°53'3 5.7
2014-Aug-19 03:29N 53°42' E 000°51'6 5.9
2014-Aug-19 02:24N 53°48' E 000°47'5 6.2
2014-Aug-19 01:32N 53°52' E 000°43'6 6.4
2014-Aug-19 00:33N 53°58' E 000°37'7 6.7
2014-Aug-18 23:34N 54°04' E 000°33'7 6.7
2014-Aug-18 22:34N 54°10' E 000°29'6 6.1
2014-Aug-18 21:34N 54°16' E 000°25'6 5.7
2014-Aug-18 20:33N 54°20' E 000°19'5 5.5
2014-Aug-18 19:34N 54°24' E 000°13'2 2.4
2014-Aug-18 18:33N 54°22' E 000°11'2 1.8
2014-Aug-18 17:33N 54°22' E 000°14'4 4.3
2014-Aug-18 16:34N 54°25' E 000°17'6 5.8
2014-Aug-18 15:33N 54°31' E 000°21'7 6.7
2014-Aug-18 14:33N 54°37' E 000°25'150 3.8
2014-Aug-16 23:12N 53°01' E 003°40'12 6.4
2014-Aug-16 21:22N 52°50' E 003°46'6 6.9
2014-Aug-16 20:33N 52°45' E 003°49'7 6.6
2014-Aug-16 19:34N 52°38' E 003°50'6 6.0
2014-Aug-16 18:33N 52°32' E 003°53'7 7.0
2014-Aug-16 17:33N 52°26' E 003°58'6 6.3
2014-Aug-16 16:33N 52°21' E 004°02'5 4.6
2014-Aug-16 15:33N 52°17' E 004°07'4 3.6
2014-Aug-16 14:33N 52°14' E 004°10'4 4.3
2014-Aug-16 13:34N 52°09' E 004°11'2 2.4
2014-Aug-16 12:34N 52°08' E 004°14'2 2.1
2014-Aug-16 11:31N 52°06' E 004°16'0 0.0
2014-Aug-16 10:28N 52°06' E 004°16'0 0.0
2014-Aug-16 09:31N 52°06' E 004°16'0 0.0
2014-Aug-16 08:31N 52°06' E 004°16'0 0.0
2014-Aug-16 07:31N 52°06' E 004°16'0 0.0
2014-Aug-16 06:31N 52°06' E 004°16'0 0.0
2014-Aug-16 05:28N 52°06' E 004°16'0 0.0
2014-Aug-16 04:31N 52°06' E 004°16'0 0.0
2014-Aug-16 03:31N 52°06' E 004°16'0 0.0
2014-Aug-16 02:31N 52°06' E 004°16'0 0.0
2014-Aug-16 01:28N 52°06' E 004°16'0 0.0
2014-Aug-16 00:31N 52°06' E 004°16'0 0.0
2014-Aug-15 23:31N 52°06' E 004°16'0 0.0
2014-Aug-15 22:31N 52°06' E 004°16'0 0.0
2014-Aug-15 21:31N 52°06' E 004°16'0 0.0
2014-Aug-15 20:31N 52°06' E 004°16'0 0.0
2014-Aug-15 19:28N 52°06' E 004°16'0 0.0
2014-Aug-15 18:31N 52°06' E 004°16'0 0.0
2014-Aug-15 17:31N 52°06' E 004°16'0 0.0
2014-Aug-15 16:31N 52°06' E 004°16'0 0.0
2014-Aug-15 15:31N 52°06' E 004°16'0 0.0
2014-Aug-15 14:31N 52°06' E 004°16'0 0.0
2014-Aug-15 13:31N 52°06' E 004°16'0 0.0
2014-Aug-15 12:31N 52°06' E 004°16'0 0.0
2014-Aug-15 11:31N 52°06' E 004°16'0 0.0
2014-Aug-15 10:31N 52°06' E 004°16'1 1.5
2014-Aug-15 09:33N 52°07' E 004°15'5 5.2
2014-Aug-15 08:34N 52°12' E 004°19'1 1.1
2014-Aug-15 07:33N 52°12' E 004°21'3 2.6
2014-Aug-15 06:33N 52°10' E 004°18'5 5.1
2014-Aug-15 05:33N 52°09' E 004°10'3 2.7
2014-Aug-15 04:33N 52°10' E 004°07'2 2.2
2014-Aug-15 03:33N 52°11' E 004°04'1 1.1
2014-Aug-15 02:33N 52°12' E 004°02'2 1.8
2014-Aug-15 01:33N 52°13' E 003°60'3 2.9
2014-Aug-15 00:33N 52°15' E 003°56'3 2.6
2014-Aug-14 23:31N 52°17' E 003°53'3 2.8
2014-Aug-14 22:33N 52°19' E 003°50'4 3.9
2014-Aug-14 21:30N 52°20' E 003°44'12 4.0
2014-Aug-14 18:25N 52°24' E 003°24'3 1.5
2014-Aug-14 16:27N 52°22' E 003°27'43 3.1
2014-Aug-14 02:32N 52°15' E 002°17'5 5.4
2014-Aug-14 01:34N 52°18' E 002°11'7 6.5
2014-Aug-14 00:34N 52°23' E 002°03'6 6.1
2014-Aug-13 23:33N 52°27' E 001°56'6 5.8
2014-Aug-13 22:33N 52°32' E 001°51'6 6.0
2014-Aug-13 21:33N 52°36' E 001°44'1 0.7
2014-Aug-13 20:32N 52°36' E 001°44'0 0.0
2014-Aug-13 19:31N 52°36' E 001°44'0 0.0
2014-Aug-13 18:31N 52°36' E 001°44'0 0.0
2014-Aug-13 17:31N 52°36' E 001°44'0 0.0
2014-Aug-13 16:31N 52°36' E 001°44'0 0.0
2014-Aug-13 15:31N 52°36' E 001°44'0 0.0
2014-Aug-13 14:31N 52°36' E 001°44'0 0.0
2014-Aug-13 13:31N 52°36' E 001°44'0 0.0
2014-Aug-13 12:31N 52°36' E 001°44'0 0.1
2014-Aug-13 11:33N 52°36' E 001°44'3 3.1
2014-Aug-13 10:33N 52°34' E 001°46'1 1.0
2014-Aug-13 09:33N 52°34' E 001°45'7 7.5
2014-Aug-13 08:33N 52°42' E 001°46'5 5.3
2014-Aug-13 07:33N 52°46' E 001°53'5 5.0
2014-Aug-13 06:33N 52°46' E 002°01'5 4.7
2014-Aug-13 05:33N 52°46' E 002°09'6 5.6
2014-Aug-13 04:33N 52°41' E 002°14'7 7.4
2014-Aug-13 03:32N 52°35' E 002°19'7 7.2
2014-Aug-13 02:33N 52°29' E 002°25'4 3.6
2014-Aug-13 01:33N 52°26' E 002°29'4 4.4
2014-Aug-13 00:33N 52°30' E 002°28'6 6.1
2014-Aug-12 23:33N 52°36' E 002°26'22 3.0
2014-Aug-12 16:20N 52°36' E 003°03'5 6.3
2014-Aug-12 15:33N 52°33' E 003°09'7 6.5
2014-Aug-12 14:32N 52°29' E 003°18'6 6.2
2014-Aug-12 13:33N 52°25' E 003°26'15 1.3
2014-Aug-12 02:20N 52°38' E 003°38'4 5.4
2014-Aug-12 01:33N 52°34' E 003°40'5 4.7
2014-Aug-12 00:33N 52°30' E 003°43'4 3.9
2014-Aug-11 23:33N 52°27' E 003°47'4 4.1
2014-Aug-11 22:33N 52°25' E 003°53'5 5.0
2014-Aug-11 21:34N 52°22' E 004°00'5 4.9
2014-Aug-11 20:33N 52°20' E 004°08'5 4.9
2014-Aug-11 19:33N 52°18' E 004°14'2 2.5
2014-Aug-11 18:33N 52°20' E 004°13'2 1.7
2014-Aug-11 17:33N 52°21' E 004°12'3 3.0
2014-Aug-11 16:33N 52°19' E 004°13'3 3.1
2014-Aug-11 15:33N 52°15' E 004°14'3 3.2
2014-Aug-11 14:33N 52°12' E 004°14'5 5.0
2014-Aug-11 13:33N 52°07' E 004°15'1 1.5
2014-Aug-11 12:33N 52°06' E 004°16'0 0.0
2014-Aug-11 11:33N 52°06' E 004°16'0 0.0
2014-Aug-11 10:33N 52°06' E 004°16'0 0.0
2014-Aug-11 09:33N 52°06' E 004°16'0 0.0
2014-Aug-11 08:33N 52°06' E 004°16'0 0.0
2014-Aug-11 07:33N 52°06' E 004°16'0 0.0
2014-Aug-11 06:33N 52°06' E 004°16'0 0.0
2014-Aug-11 05:33N 52°06' E 004°16'0 0.0
2014-Aug-11 04:33N 52°06' E 004°16'0 0.0
2014-Aug-11 03:30N 52°06' E 004°16'0 0.0
2014-Aug-11 02:33N 52°06' E 004°16'0 0.0
2014-Aug-11 01:33N 52°06' E 004°16'0 0.0
2014-Aug-11 00:30N 52°06' E 004°16'0 0.0
2014-Aug-10 23:33N 52°06' E 004°16'0 0.0
2014-Aug-10 22:33N 52°06' E 004°16'0 0.0
2014-Aug-10 21:33N 52°06' E 004°16'0 0.0
2014-Aug-10 20:32N 52°06' E 004°16'0 0.0
2014-Aug-10 19:32N 52°06' E 004°16'0 0.0
2014-Aug-10 18:32N 52°06' E 004°16'0 0.0
2014-Aug-10 17:32N 52°06' E 004°16'0 0.0
2014-Aug-10 16:32N 52°06' E 004°16'  
Track history (hours):
 
Tides and Currents Weather Stations Pressure Air Temp Water Temp Dewpoint Dewpoint Depression Visibility Wind Speed Wind Dir Waves Ship Positions

Eendracht (Netherlands)

Last reported at 2014-Aug-20 16:30 UTC. Time now 2014-Aug-20 16:37 UTC.
Position N 51°31' E 000°43'.

Length 59 m; beam 12 m; draft 5 m.

Type: Sailing vessel. MMSI: 244543000.

Date/timePositionNaut miles runAvg speedWind from/ knotsBaromVisibWave heightAir tempDewpointWater temp
2014-Aug-20 16:30N 51°31' E 000°43'0 0.0
2014-Aug-20 15:33N 51°31' E 000°43'0 0.0
2014-Aug-20 14:33N 51°31' E 000°43'0 0.0
2014-Aug-20 13:33N 51°31' E 000°43'1 1.3
2014-Aug-20 12:34N 51°30' E 000°45'5 4.6
2014-Aug-20 11:33N 51°30' E 000°53'4 4.0
2014-Aug-20 10:34N 51°32' E 000°59'4 4.1
2014-Aug-20 09:33N 51°33' E 001°05'5 4.9
2014-Aug-20 08:33N 51°36' E 001°11'6 5.5
2014-Aug-20 07:33N 51°40' E 001°17'6 6.2
2014-Aug-20 06:33N 51°44' E 001°24'7 6.9
2014-Aug-20 05:33N 51°49' E 001°33'7 7.2
2014-Aug-20 04:34N 51°53' E 001°42'8 7.7
2014-Aug-20 03:33N 52°01' E 001°45'7 7.5
2014-Aug-20 02:34N 52°08' E 001°46'7 6.7
2014-Aug-20 01:33N 52°15' E 001°48'6 6.1
2014-Aug-20 00:33N 52°21' E 001°49'5 5.4
2014-Aug-19 23:34N 52°26' E 001°50'5 4.5
2014-Aug-19 22:34N 52°31' E 001°51'4 3.6
2014-Aug-19 21:33N 52°34' E 001°53'1 1.0
2014-Aug-19 20:34N 52°35' E 001°54'3 3.1
2014-Aug-19 19:34N 52°38' E 001°56'5 5.2
2014-Aug-19 18:33N 52°42' E 001°59'5 5.5
2014-Aug-19 17:34N 52°48' E 001°58'7 6.9
2014-Aug-19 16:33N 52°55' E 001°58'8 7.7
2014-Aug-19 15:33N 53°02' E 001°59'5 5.1
2014-Aug-19 14:33N 53°04' E 001°50'7 7.3
2014-Aug-19 13:33N 53°04' E 001°38'6 6.4
2014-Aug-19 12:33N 53°03' E 001°28'3 3.3
2014-Aug-19 11:33N 53°02' E 001°23'5 5.2
2014-Aug-19 10:34N 53°06' E 001°18'6 6.2
2014-Aug-19 09:33N 53°11' E 001°12'29 5.4
2014-Aug-19 04:06N 53°38' E 000°53'3 5.7
2014-Aug-19 03:29N 53°42' E 000°51'6 5.9
2014-Aug-19 02:24N 53°48' E 000°47'5 6.2
2014-Aug-19 01:32N 53°52' E 000°43'6 6.4
2014-Aug-19 00:33N 53°58' E 000°37'7 6.7
2014-Aug-18 23:34N 54°04' E 000°33'7 6.7
2014-Aug-18 22:34N 54°10' E 000°29'6 6.1
2014-Aug-18 21:34N 54°16' E 000°25'6 5.7
2014-Aug-18 20:33N 54°20' E 000°19'5 5.5
2014-Aug-18 19:34N 54°24' E 000°13'2 2.4
2014-Aug-18 18:33N 54°22' E 000°11'2 1.8
2014-Aug-18 17:33N 54°22' E 000°14'4 4.3
2014-Aug-18 16:34N 54°25' E 000°17'6 5.8
2014-Aug-18 15:33N 54°31' E 000°21'7 6.7
2014-Aug-18 14:33N 54°37' E 000°25'150 3.8
2014-Aug-16 23:12N 53°01' E 003°40'12 6.4
2014-Aug-16 21:22N 52°50' E 003°46'6 6.9
2014-Aug-16 20:33N 52°45' E 003°49'7 6.6
2014-Aug-16 19:34N 52°38' E 003°50'6 6.0
2014-Aug-16 18:33N 52°32' E 003°53'7 7.0
2014-Aug-16 17:33N 52°26' E 003°58'6 6.3
2014-Aug-16 16:33N 52°21' E 004°02'5 4.6
2014-Aug-16 15:33N 52°17' E 004°07'4 3.6
2014-Aug-16 14:33N 52°14' E 004°10'4 4.3
2014-Aug-16 13:34N 52°09' E 004°11'2 2.4
2014-Aug-16 12:34N 52°08' E 004°14'2 2.1
2014-Aug-16 11:31N 52°06' E 004°16'0 0.0
2014-Aug-16 10:28N 52°06' E 004°16'0 0.0
2014-Aug-16 09:31N 52°06' E 004°16'0 0.0
2014-Aug-16 08:31N 52°06' E 004°16'0 0.0
2014-Aug-16 07:31N 52°06' E 004°16'0 0.0
2014-Aug-16 06:31N 52°06' E 004°16'0 0.0
2014-Aug-16 05:28N 52°06' E 004°16'0 0.0
2014-Aug-16 04:31N 52°06' E 004°16'0 0.0
2014-Aug-16 03:31N 52°06' E 004°16'0 0.0
2014-Aug-16 02:31N 52°06' E 004°16'0 0.0
2014-Aug-16 01:28N 52°06' E 004°16'0 0.0
2014-Aug-16 00:31N 52°06' E 004°16'0 0.0
2014-Aug-15 23:31N 52°06' E 004°16'0 0.0
2014-Aug-15 22:31N 52°06' E 004°16'0 0.0
2014-Aug-15 21:31N 52°06' E 004°16'0 0.0
2014-Aug-15 20:31N 52°06' E 004°16'0 0.0
2014-Aug-15 19:28N 52°06' E 004°16'0 0.0
2014-Aug-15 18:31N 52°06' E 004°16'0 0.0
2014-Aug-15 17:31N 52°06' E 004°16'0 0.0
2014-Aug-15 16:31N 52°06' E 004°16'0 0.0
2014-Aug-15 15:31N 52°06' E 004°16'0 0.0
2014-Aug-15 14:31N 52°06' E 004°16'0 0.0
2014-Aug-15 13:31N 52°06' E 004°16'0 0.0
2014-Aug-15 12:31N 52°06' E 004°16'0 0.0
2014-Aug-15 11:31N 52°06' E 004°16'0 0.0
2014-Aug-15 10:31N 52°06' E 004°16'1 1.5
2014-Aug-15 09:33N 52°07' E 004°15'5 5.2
2014-Aug-15 08:34N 52°12' E 004°19'1 1.1
2014-Aug-15 07:33N 52°12' E 004°21'3 2.6
2014-Aug-15 06:33N 52°10' E 004°18'5 5.1
2014-Aug-15 05:33N 52°09' E 004°10'3 2.7
2014-Aug-15 04:33N 52°10' E 004°07'2 2.2
2014-Aug-15 03:33N 52°11' E 004°04'1 1.1
2014-Aug-15 02:33N 52°12' E 004°02'2 1.8
2014-Aug-15 01:33N 52°13' E 003°60'3 2.9
2014-Aug-15 00:33N 52°15' E 003°56'3 2.6
2014-Aug-14 23:31N 52°17' E 003°53'3 2.8
2014-Aug-14 22:33N 52°19' E 003°50'4 3.9
2014-Aug-14 21:30N 52°20' E 003°44'12 4.0
2014-Aug-14 18:25N 52°24' E 003°24'3 1.5
2014-Aug-14 16:27N 52°22' E 003°27'43 3.1
2014-Aug-14 02:32N 52°15' E 002°17'5 5.4
2014-Aug-14 01:34N 52°18' E 002°11'7 6.5
2014-Aug-14 00:34N 52°23' E 002°03'6 6.1
2014-Aug-13 23:33N 52°27' E 001°56'6 5.8
2014-Aug-13 22:33N 52°32' E 001°51'6 6.0
2014-Aug-13 21:33N 52°36' E 001°44'1 0.7
2014-Aug-13 20:32N 52°36' E 001°44'0 0.0
2014-Aug-13 19:31N 52°36' E 001°44'0 0.0
2014-Aug-13 18:31N 52°36' E 001°44'0 0.0
2014-Aug-13 17:31N 52°36' E 001°44'0 0.0
2014-Aug-13 16:31N 52°36' E 001°44'0 0.0
2014-Aug-13 15:31N 52°36' E 001°44'0 0.0
2014-Aug-13 14:31N 52°36' E 001°44'0 0.0
2014-Aug-13 13:31N 52°36' E 001°44'0 0.0
2014-Aug-13 12:31N 52°36' E 001°44'0 0.1
2014-Aug-13 11:33N 52°36' E 001°44'3 3.1
2014-Aug-13 10:33N 52°34' E 001°46'1 1.0
2014-Aug-13 09:33N 52°34' E 001°45'7 7.5
2014-Aug-13 08:33N 52°42' E 001°46'5 5.3
2014-Aug-13 07:33N 52°46' E 001°53'5 5.0
2014-Aug-13 06:33N 52°46' E 002°01'5 4.7
2014-Aug-13 05:33N 52°46' E 002°09'6 5.6
2014-Aug-13 04:33N 52°41' E 002°14'7 7.4
2014-Aug-13 03:32N 52°35' E 002°19'7 7.2
2014-Aug-13 02:33N 52°29' E 002°25'4 3.6
2014-Aug-13 01:33N 52°26' E 002°29'4 4.4
2014-Aug-13 00:33N 52°30' E 002°28'6 6.1
2014-Aug-12 23:33N 52°36' E 002°26'22 3.0
2014-Aug-12 16:20N 52°36' E 003°03'5 6.3
2014-Aug-12 15:33N 52°33' E 003°09'7 6.5
2014-Aug-12 14:32N 52°29' E 003°18'6 6.2
2014-Aug-12 13:33N 52°25' E 003°26'15 1.3
2014-Aug-12 02:20N 52°38' E 003°38'4 5.4
2014-Aug-12 01:33N 52°34' E 003°40'5 4.7
2014-Aug-12 00:33N 52°30' E 003°43'4 3.9
2014-Aug-11 23:33N 52°27' E 003°47'4 4.1
2014-Aug-11 22:33N 52°25' E 003°53'5 5.0
2014-Aug-11 21:34N 52°22' E 004°00'5 4.9
2014-Aug-11 20:33N 52°20' E 004°08'5 4.9
2014-Aug-11 19:33N 52°18' E 004°14'2 2.5
2014-Aug-11 18:33N 52°20' E 004°13'2 1.7
2014-Aug-11 17:33N 52°21' E 004°12'3 3.0
2014-Aug-11 16:33N 52°19' E 004°13'3 3.1
2014-Aug-11 15:33N 52°15' E 004°14'3 3.2
2014-Aug-11 14:33N 52°12' E 004°14'5 5.0
2014-Aug-11 13:33N 52°07' E 004°15'1 1.5
2014-Aug-11 12:33N 52°06' E 004°16'0 0.0
2014-Aug-11 11:33N 52°06' E 004°16'0 0.0
2014-Aug-11 10:33N 52°06' E 004°16'0 0.0
2014-Aug-11 09:33N 52°06' E 004°16'0 0.0
2014-Aug-11 08:33N 52°06' E 004°16'0 0.0
2014-Aug-11 07:33N 52°06' E 004°16'0 0.0
2014-Aug-11 06:33N 52°06' E 004°16'0 0.0
2014-Aug-11 05:33N 52°06' E 004°16'0 0.0
2014-Aug-11 04:33N 52°06' E 004°16'0 0.0
2014-Aug-11 03:30N 52°06' E 004°16'0 0.0
2014-Aug-11 02:33N 52°06' E 004°16'0 0.0
2014-Aug-11 01:33N 52°06' E 004°16'0 0.0
2014-Aug-11 00:30N 52°06' E 004°16'0 0.0
2014-Aug-10 23:33N 52°06' E 004°16'0 0.0
2014-Aug-10 22:33N 52°06' E 004°16'0 0.0
2014-Aug-10 21:33N 52°06' E 004°16'0 0.0
2014-Aug-10 20:32N 52°06' E 004°16'0 0.0
2014-Aug-10 19:32N 52°06' E 004°16'0 0.0
2014-Aug-10 18:32N 52°06' E 004°16'0 0.0
2014-Aug-10 17:32N 52°06' E 004°16'0 0.0
2014-Aug-10 16:32N 52°06' E 004°16'  

Dump ship's entire track history